createdAt,value
2019-02-27T00:01:23.488Z,15.93
2019-02-27T00:03:56.947Z,14.55
2019-02-27T00:06:30.700Z,15.70
2019-02-27T00:09:09.059Z,16.57
2019-02-27T00:11:46.725Z,14.50
2019-02-27T00:14:19.666Z,15.40
2019-02-27T00:16:52.756Z,15.13
2019-02-27T00:19:25.850Z,15.35
2019-02-27T00:21:59.696Z,15.10
2019-02-27T00:24:32.998Z,16.52
2019-02-27T00:27:06.123Z,16.05
2019-02-27T14:01:15.787Z,4.87
2019-02-27T14:03:49.965Z,5.67
2019-02-27T14:06:26.468Z,4.80
2019-02-27T14:09:00.656Z,5.40
2019-02-27T14:11:37.702Z,5.50
2019-02-27T14:14:11.492Z,5.23
2019-02-27T14:16:46.565Z,5.00
2019-02-27T14:19:21.349Z,4.97
2019-02-27T14:21:56.153Z,6.17
2019-02-27T14:24:31.034Z,5.40
2019-02-27T14:27:03.985Z,5.20
2019-02-27T14:29:37.893Z,5.70
2019-02-27T14:32:14.460Z,6.33
2019-02-27T14:34:47.540Z,6.13
2019-02-27T14:37:20.884Z,5.77
2019-02-27T14:39:54.396Z,5.80
2019-02-27T14:42:27.585Z,7.10
2019-02-27T14:45:03.254Z,6.60
2019-02-27T14:47:50.311Z,6.27
2019-02-27T14:50:33.601Z,6.60
2019-02-27T14:53:04.736Z,6.97
2019-02-27T14:55:37.591Z,6.70
2019-02-27T14:58:13.800Z,6.73
2019-02-27T15:00:53.613Z,6.83
2019-02-27T15:03:30.138Z,6.47
2019-02-27T15:06:26.328Z,6.50
2019-02-27T15:09:03.629Z,6.60
2019-02-27T15:11:39.334Z,6.77
2019-02-27T15:14:13.557Z,7.10
2019-02-27T15:16:49.281Z,7.60
2019-02-27T15:19:23.526Z,6.93
2019-02-27T15:21:57.127Z,7.10
2019-02-27T15:24:34.879Z,7.77
2019-02-27T15:27:11.009Z,7.73
2019-02-27T15:29:44.499Z,6.13
2019-02-27T15:32:18.641Z,7.20
2019-02-27T15:34:51.693Z,7.03
2019-02-27T15:37:25.756Z,6.87
2019-02-27T15:39:59.192Z,7.70
2019-02-27T15:42:35.004Z,8.10
2019-02-27T15:45:10.255Z,8.20
2019-02-27T15:47:46.441Z,7.40
2019-02-27T15:50:23.639Z,6.70
2019-02-27T15:53:03.013Z,7.07
2019-02-27T15:55:37.922Z,6.67
2019-02-27T15:58:19.532Z,7.27
2019-02-27T16:01:04.292Z,6.93
2019-02-27T16:03:45.453Z,7.27
2019-02-27T16:06:21.829Z,6.63
2019-02-27T16:09:31.811Z,7.43
2019-02-27T16:12:19.891Z,6.30
2019-02-27T16:15:21.189Z,6.90
2019-02-27T16:18:21.381Z,6.60
2019-02-27T16:21:04.020Z,7.00
2019-02-27T16:26:42.896Z,6.67
2019-02-27T16:29:19.929Z,6.70
2019-02-27T16:31:58.842Z,7.50
2019-02-27T16:34:41.892Z,7.30
2019-02-27T16:37:21.908Z,7.50
2019-02-27T16:40:25.390Z,6.87
2019-02-27T16:43:00.962Z,8.10
2019-02-27T16:46:07.695Z,8.70
2019-02-27T16:48:46.497Z,6.57
2019-02-27T16:51:35.231Z,7.97
2019-02-27T16:54:16.004Z,7.80
2019-02-27T16:56:58.132Z,7.30
2019-02-27T16:59:34.499Z,7.20
2019-02-27T17:02:13.404Z,6.97
2019-02-27T17:04:50.426Z,7.50
2019-02-27T17:07:26.749Z,6.50
2019-02-27T17:10:03.732Z,6.90
2019-02-27T17:12:43.020Z,8.10
2019-02-27T17:18:21.311Z,6.80
2019-02-27T17:20:56.481Z,6.80
2019-02-27T17:23:29.956Z,7.70
2019-02-27T17:26:04.344Z,7.90
2019-02-27T17:28:39.253Z,7.03
2019-02-27T17:31:12.848Z,7.25
2019-02-27T17:33:46.212Z,7.87
2019-02-27T17:36:20.123Z,6.55
2019-02-27T17:38:53.115Z,7.30
2019-02-27T17:41:27.059Z,7.60
2019-02-27T17:44:03.725Z,7.72
2019-02-27T17:46:36.874Z,7.37
2019-02-27T17:49:10.070Z,7.17
2019-02-27T17:51:43.572Z,7.12
2019-02-27T17:54:17.176Z,6.83
2019-02-27T17:56:50.755Z,7.45
2019-02-27T17:59:24.388Z,6.90
2019-02-27T18:01:58.694Z,8.03
2019-02-27T18:04:32.461Z,9.15
2019-02-27T18:07:06.351Z,7.75
2019-02-27T18:09:40.844Z,8.28
2019-02-27T18:12:14.555Z,7.33
2019-02-27T18:14:49.488Z,7.65
2019-02-27T18:17:22.530Z,8.03
2019-02-27T18:19:55.328Z,7.85
2019-02-27T18:22:29.661Z,7.28
2019-02-27T18:25:04.789Z,8.60
2019-02-27T18:27:38.302Z,8.05
2019-02-27T18:30:15.561Z,8.43
2019-02-27T18:32:48.532Z,8.68
2019-02-27T18:35:23.259Z,8.48
2019-02-27T18:37:56.418Z,8.40
2019-02-27T18:40:29.204Z,9.18
2019-02-27T18:43:03.102Z,8.53
2019-02-27T18:45:36.785Z,8.03
2019-02-27T18:48:10.780Z,7.37
2019-02-27T18:50:43.912Z,7.97
2019-02-27T18:53:17.470Z,8.40
2019-02-27T18:55:50.211Z,8.08
2019-02-27T18:58:23.699Z,8.10
2019-02-27T19:00:56.365Z,9.05
2019-02-27T19:03:30.384Z,8.30
2019-02-27T19:06:04.107Z,9.03
2019-02-27T19:08:38.700Z,8.45
2019-02-27T19:11:12.899Z,8.70
2019-02-27T19:13:48.055Z,8.45
2019-02-27T19:16:21.522Z,9.98
2019-02-27T19:18:55.296Z,9.03
2019-02-27T19:21:32.570Z,8.80
2019-02-27T19:24:03.794Z,9.53
2019-02-27T19:26:37.558Z,9.90
2019-02-27T19:29:11.218Z,9.95
2019-02-27T19:31:43.630Z,10.30
2019-02-27T19:34:16.372Z,10.00
2019-02-27T19:36:50.222Z,10.43
2019-02-27T19:39:23.722Z,11.10
2019-02-27T19:41:57.217Z,9.40
2019-02-27T19:44:31.814Z,11.95
2019-02-27T19:47:06.138Z,10.50
2019-02-27T19:49:39.427Z,10.08
2019-02-27T19:52:13.047Z,10.10
2019-02-27T19:54:51.887Z,11.03
2019-02-27T19:57:22.220Z,9.63
2019-02-27T19:59:58.835Z,10.85
2019-02-27T20:02:31.961Z,10.08
2019-02-27T20:05:05.939Z,11.25
2019-02-27T20:07:38.732Z,10.78
2019-02-27T20:10:12.640Z,11.83
2019-02-27T20:12:47.819Z,11.08
2019-02-27T20:15:23.375Z,9.58
2019-02-27T20:17:57.640Z,9.90
2019-02-27T20:20:31.051Z,9.55
2019-02-27T20:23:04.330Z,9.95
2019-02-27T20:25:43.246Z,10.05
2019-02-27T20:28:13.357Z,8.63
2019-02-27T20:30:47.088Z,9.18
2019-02-27T20:33:22.438Z,9.50
2019-02-27T20:35:56.673Z,9.03
2019-02-27T20:38:30.358Z,9.50
2019-02-27T20:41:06.013Z,10.10
2019-02-27T20:43:39.614Z,9.75
2019-02-27T20:46:14.717Z,9.95
2019-02-27T20:48:48.310Z,11.43
2019-02-27T20:51:21.401Z,11.08
2019-02-27T20:53:56.521Z,9.93
2019-02-27T20:56:32.258Z,9.90
2019-02-27T20:59:06.056Z,10.32
2019-02-27T21:01:39.681Z,12.13
2019-02-27T21:04:13.817Z,9.93
2019-02-27T21:06:48.458Z,9.88
2019-02-27T21:09:22.430Z,9.93
2019-02-27T21:11:56.487Z,9.65
2019-02-27T21:14:30.021Z,10.20
2019-02-27T21:17:03.309Z,10.38
2019-02-27T21:19:38.097Z,10.70
2019-02-27T21:22:11.797Z,10.75
2019-02-27T21:24:44.403Z,10.18
2019-02-27T21:27:17.988Z,10.90
2019-02-27T21:29:50.593Z,11.53
2019-02-27T21:32:23.811Z,10.80
2019-02-27T21:34:56.472Z,10.93
2019-02-27T21:37:30.018Z,10.50
2019-02-27T21:40:03.378Z,11.68
2019-02-27T21:42:38.263Z,10.75
2019-02-27T21:45:13.395Z,11.05
2019-02-27T21:47:51.366Z,11.97
2019-02-27T21:50:21.920Z,11.48
2019-02-27T21:52:55.772Z,12.80
2019-02-27T21:55:29.616Z,11.75
2019-02-27T21:58:02.637Z,11.00
2019-02-27T22:00:36.140Z,11.70
2019-02-27T22:03:09.243Z,13.22
2019-02-27T22:05:44.721Z,12.13
2019-02-27T22:08:18.090Z,11.22
2019-02-27T22:10:53.707Z,12.30
2019-02-27T22:13:29.605Z,13.05
2019-02-27T22:16:02.512Z,12.75
2019-02-27T22:18:35.710Z,12.23
2019-02-27T22:21:09.108Z,12.78
2019-02-27T22:23:44.807Z,13.25
2019-02-27T22:26:18.439Z,12.60
2019-02-27T22:28:54.413Z,11.45
2019-02-27T22:31:26.845Z,12.78
2019-02-27T22:34:00.626Z,12.90
2019-02-27T22:36:33.934Z,11.75
2019-02-27T22:39:06.953Z,12.88
2019-02-27T22:41:41.780Z,12.95
2019-02-27T22:44:15.236Z,12.93
2019-02-27T22:46:48.605Z,11.65
2019-02-27T22:49:22.495Z,12.93
2019-02-27T22:51:55.851Z,12.37
2019-02-27T22:54:28.995Z,12.10
2019-02-27T22:57:02.022Z,12.60
2019-02-27T22:59:37.387Z,12.63
2019-02-27T23:02:10.385Z,13.10
2019-02-27T23:04:43.765Z,12.23
2019-02-27T23:07:20.539Z,14.10
2019-02-27T23:09:52.878Z,13.78
2019-02-27T23:12:25.513Z,14.43
2019-02-27T23:14:59.062Z,12.90
2019-02-27T23:17:32.879Z,13.03
2019-02-27T23:20:06.223Z,12.90
2019-02-27T23:22:41.893Z,14.63
2019-02-27T23:25:15.625Z,13.50
2019-02-27T23:27:49.750Z,14.40
2019-02-27T23:30:22.859Z,15.60
2019-02-27T23:32:56.036Z,14.25
2019-02-27T23:35:29.124Z,14.83
2019-02-27T23:38:03.467Z,13.90
2019-02-27T23:40:37.461Z,15.35
2019-02-27T23:43:10.852Z,15.20
2019-02-27T23:45:44.717Z,16.10
2019-02-27T23:48:18.244Z,15.55
2019-02-27T23:50:51.977Z,16.57
2019-02-27T23:53:27.090Z,15.88
2019-02-27T23:56:00.787Z,16.55
2019-02-27T23:58:34.180Z,17.82
